createdAt,value
2018-11-27T00:00:06.118Z,100.00
2018-11-27T00:02:47.189Z,100.00
2018-11-27T00:05:28.319Z,100.00
2018-11-27T00:08:09.000Z,100.00
2018-11-27T00:10:50.072Z,100.00
2018-11-27T00:13:31.079Z,100.00
2018-11-27T00:16:12.185Z,100.00
2018-11-27T00:18:53.151Z,100.00
2018-11-27T00:21:33.865Z,100.00
2018-11-27T00:24:15.393Z,100.00
2018-11-27T00:26:56.443Z,100.00
2018-11-27T00:29:37.514Z,100.00
2018-11-27T00:32:18.387Z,100.00
2018-11-27T00:34:59.452Z,100.00
2018-11-27T00:37:40.436Z,100.00
2018-11-27T00:40:21.645Z,100.00
2018-11-27T00:43:02.766Z,100.00
2018-11-27T00:45:43.844Z,100.00
2018-11-27T00:48:25.642Z,100.00
2018-11-27T00:51:06.827Z,100.00
2018-11-27T00:53:47.627Z,100.00
2018-11-27T00:56:29.153Z,100.00
2018-11-27T00:59:10.071Z,100.00
2018-11-27T01:01:51.400Z,100.00
2018-11-27T01:04:32.321Z,100.00
2018-11-27T01:07:14.030Z,100.00
2018-11-27T01:09:54.587Z,100.00
2018-11-27T01:12:35.507Z,100.00
2018-11-27T01:15:16.723Z,100.00
2018-11-27T01:17:58.116Z,100.00
2018-11-27T01:20:39.042Z,100.00
2018-11-27T01:23:20.385Z,100.00
2018-11-27T01:26:01.320Z,100.00
2018-11-27T01:28:42.451Z,100.00
2018-11-27T01:31:24.050Z,100.00
2018-11-27T01:34:05.187Z,100.00
2018-11-27T01:36:46.756Z,100.00
2018-11-27T01:43:38.596Z,100.00
2018-11-27T01:46:19.401Z,100.00
2018-11-27T01:48:59.873Z,100.00
2018-11-27T01:51:40.923Z,100.00
2018-11-27T01:54:22.261Z,100.00
2018-11-27T01:57:03.706Z,99.48
2018-11-27T02:02:28.887Z,97.62
2018-11-27T02:05:09.799Z,93.71
2018-11-27T02:07:51.318Z,91.19
2018-11-27T02:10:32.384Z,89.64
2018-11-27T02:13:13.593Z,85.39
2018-11-27T02:15:54.874Z,81.57
2018-11-27T02:18:36.000Z,80.21
2018-11-27T02:21:17.433Z,77.00
2018-11-27T02:23:58.919Z,77.28
2018-11-27T02:26:40.144Z,77.15
2018-11-27T02:29:22.232Z,74.23
2018-11-27T02:32:03.312Z,70.02
2018-11-27T02:34:45.118Z,74.33
2018-11-27T02:37:26.046Z,72.65
2018-11-27T02:40:06.758Z,69.73
2018-11-27T02:42:47.227Z,68.46
2018-11-27T02:45:28.647Z,68.64
2018-11-27T02:48:09.514Z,68.87
2018-11-27T02:50:50.908Z,67.38
2018-11-27T02:53:31.487Z,68.45
2018-11-27T02:56:12.921Z,66.39
2018-11-27T02:58:53.752Z,63.46
2018-11-27T03:01:35.677Z,63.73
2018-11-27T03:04:16.955Z,64.86
2018-11-27T03:06:57.757Z,66.35
2018-11-27T03:09:39.229Z,65.57
2018-11-27T03:12:19.958Z,64.97
2018-11-27T03:15:01.152Z,64.86
2018-11-27T03:17:41.924Z,64.26
2018-11-27T03:20:23.081Z,65.18
2018-11-27T03:23:04.082Z,63.41
2018-11-27T03:25:45.004Z,61.30
2018-11-27T03:28:26.001Z,63.67
2018-11-27T03:31:06.888Z,63.63
2018-11-27T03:33:47.871Z,62.01
2018-11-27T03:36:28.844Z,61.32
2018-11-27T03:39:09.758Z,57.61
2018-11-27T03:41:51.465Z,61.10
2018-11-27T03:44:32.323Z,62.22
2018-11-27T03:47:14.000Z,59.37
2018-11-27T03:49:54.912Z,60.44
2018-11-27T03:52:36.066Z,61.07
2018-11-27T03:55:17.586Z,63.43
2018-11-27T03:57:58.913Z,61.77
2018-11-27T04:00:40.115Z,59.36
2018-11-27T04:03:21.389Z,60.61
2018-11-27T04:06:02.242Z,58.01
2018-11-27T04:08:43.839Z,57.72
2018-11-27T04:11:25.150Z,56.38
2018-11-27T04:14:06.090Z,58.40
2018-11-27T04:16:46.760Z,59.86
2018-11-27T04:23:52.665Z,58.46
2018-11-27T04:26:33.206Z,59.08
2018-11-27T04:29:14.601Z,56.15
2018-11-27T04:31:55.165Z,58.24
2018-11-27T04:34:36.824Z,59.04
2018-11-27T04:37:17.806Z,59.01
2018-11-27T04:39:58.731Z,58.69
2018-11-27T04:42:39.680Z,58.86
2018-11-27T04:45:20.929Z,55.31
2018-11-27T04:48:01.631Z,53.07
2018-11-27T04:50:42.883Z,54.23
2018-11-27T04:53:23.847Z,56.72
2018-11-27T04:56:05.151Z,54.37
2018-11-27T04:58:46.121Z,52.91
2018-11-27T05:01:27.359Z,51.23
2018-11-27T05:04:08.161Z,52.50
2018-11-27T05:06:49.130Z,50.28
2018-11-27T05:09:30.315Z,47.93
2018-11-27T05:12:11.201Z,49.45
2018-11-27T05:14:52.478Z,51.60
2018-11-27T05:17:33.596Z,52.62
2018-11-27T05:20:14.402Z,49.87
2018-11-27T05:22:55.684Z,49.51
2018-11-27T05:29:49.453Z,50.41
2018-11-27T05:32:30.435Z,51.56
2018-11-27T05:35:11.681Z,52.62
2018-11-27T05:37:52.522Z,50.22
2018-11-27T05:40:33.940Z,50.80
2018-11-27T05:43:15.169Z,49.83
2018-11-27T05:45:56.476Z,50.16
2018-11-27T05:48:36.880Z,49.28
2018-11-27T05:51:17.755Z,50.02
2018-11-27T05:53:58.733Z,51.27
2018-11-27T05:56:39.885Z,51.44
2018-11-27T05:59:21.275Z,51.05
2018-11-27T06:02:02.573Z,52.07
2018-11-27T06:04:43.244Z,50.40
2018-11-27T06:07:24.652Z,50.51
2018-11-27T06:10:05.450Z,50.00
2018-11-27T06:12:47.083Z,47.71
2018-11-27T06:15:28.371Z,46.84
2018-11-27T06:18:09.602Z,49.49
2018-11-27T06:20:51.035Z,47.90
2018-11-27T06:23:32.830Z,46.64
2018-11-27T06:38:41.430Z,49.15
2018-11-27T06:41:22.250Z,46.61
2018-11-27T06:44:04.475Z,48.22
2018-11-27T06:46:45.456Z,48.47
2018-11-27T06:49:26.718Z,48.72
2018-11-27T06:52:07.249Z,46.54
2018-11-27T06:54:48.650Z,45.98
2018-11-27T06:57:29.609Z,46.64
2018-11-27T07:00:10.890Z,45.83
2018-11-27T07:02:51.523Z,46.15
2018-11-27T07:05:32.518Z,46.15
2018-11-27T07:08:13.764Z,46.56
2018-11-27T07:10:54.204Z,48.09
2018-11-27T07:13:35.092Z,47.96
2018-11-27T07:16:16.228Z,51.05
2018-11-27T07:18:57.117Z,47.17
2018-11-27T07:21:38.367Z,47.43
2018-11-27T07:24:20.010Z,49.39
2018-11-27T07:27:01.296Z,48.03
2018-11-27T07:29:41.774Z,47.87
2018-11-27T07:32:22.400Z,47.88
2018-11-27T07:35:03.874Z,49.82
2018-11-27T07:37:45.214Z,49.23
2018-11-27T07:40:25.852Z,49.65
